createdAt,value
2022-12-23T00:00:15.633Z,99466.81
2022-12-23T00:03:20.559Z,99453.78
2022-12-23T00:06:26.693Z,99463.72
2022-12-23T00:09:31.260Z,99459.88
2022-12-23T00:12:54.342Z,99473.59
2022-12-23T00:16:12.157Z,99463.81
2022-12-23T00:19:16.598Z,99459.31
2022-12-23T00:22:21.258Z,99470.00
2022-12-23T00:25:41.221Z,99487.38
2022-12-23T00:28:49.358Z,99483.78
2022-12-23T00:31:53.902Z,99480.13
2022-12-23T00:34:58.339Z,99470.59
2022-12-23T00:38:02.834Z,99484.16
2022-12-23T00:41:33.295Z,99504.59
2022-12-23T00:44:37.948Z,99491.00
2022-12-23T00:48:01.741Z,99500.47
2022-12-23T00:51:07.576Z,99469.03
2022-12-23T00:54:12.050Z,99509.56
2022-12-23T00:57:16.417Z,99511.38
2022-12-23T01:00:21.493Z,99504.19
2022-12-23T01:03:44.506Z,99502.31
2022-12-23T01:06:49.320Z,99521.19
2022-12-23T01:09:54.861Z,99515.75
2022-12-23T01:12:59.113Z,99524.44
2022-12-23T01:16:17.301Z,99533.00
2022-12-23T01:19:22.541Z,99519.19
2022-12-23T01:22:27.036Z,99518.03
2022-12-23T01:25:31.970Z,99532.16
2022-12-23T01:28:37.307Z,99525.00
2022-12-23T01:31:42.109Z,99480.59
2022-12-23T01:34:46.442Z,99533.88
2022-12-23T01:37:51.130Z,99471.84
2022-12-23T01:40:58.400Z,99534.84
2022-12-23T01:44:02.891Z,99531.38
2022-12-23T01:47:12.623Z,99517.31
2022-12-23T01:50:30.727Z,99534.09
2022-12-23T01:53:39.476Z,99539.66
2022-12-23T01:56:44.175Z,99516.03
2022-12-23T02:00:07.370Z,99522.34
2022-12-23T02:03:30.526Z,99535.84
2022-12-23T02:06:59.377Z,99525.72
2022-12-23T02:10:05.903Z,99519.03
2022-12-23T02:13:29.148Z,99516.72
2022-12-23T02:17:02.416Z,99527.84
2022-12-23T02:20:25.091Z,99526.69
2022-12-23T02:23:38.120Z,99525.13
2022-12-23T02:26:54.750Z,99519.94
2022-12-23T02:30:25.171Z,99516.75
2022-12-23T02:33:36.237Z,99521.00
2022-12-23T02:36:59.632Z,99461.09
2022-12-23T02:40:12.989Z,99523.91
2022-12-23T02:43:27.120Z,99508.94
2022-12-23T02:46:56.056Z,99480.50
2022-12-23T02:50:08.671Z,99513.41
2022-12-23T02:53:22.978Z,99501.53
2022-12-23T02:56:30.844Z,99524.19
2022-12-23T02:59:42.533Z,99508.72
2022-12-23T03:02:48.147Z,99511.38
2022-12-23T03:05:52.635Z,99514.22
2022-12-23T03:09:00.081Z,99506.94
2022-12-23T03:12:16.576Z,99503.50
2022-12-23T03:15:39.144Z,99473.69
2022-12-23T03:18:59.360Z,99488.16
2022-12-23T03:22:36.033Z,99506.81
2022-12-23T03:25:54.862Z,99508.34
2022-12-23T03:29:26.241Z,99513.41
2022-12-23T03:32:36.772Z,99498.88
2022-12-23T03:36:28.563Z,99515.28
2022-12-23T03:39:40.171Z,99528.69
2022-12-23T03:42:47.727Z,99517.31
2022-12-23T03:45:58.579Z,99410.38
2022-12-23T03:49:08.978Z,99468.34
2022-12-23T03:52:22.025Z,99534.56
2022-12-23T03:55:42.541Z,99500.25
2022-12-23T03:58:59.693Z,99540.78
2022-12-23T04:02:10.223Z,99539.03
2022-12-23T04:05:24.888Z,99524.06
2022-12-23T04:08:38.044Z,99538.50
2022-12-23T04:11:42.727Z,99540.22
2022-12-23T04:14:49.686Z,99546.97
2022-12-23T04:17:55.732Z,99538.03
2022-12-23T04:21:00.266Z,99549.81
2022-12-23T04:24:04.995Z,99542.34
2022-12-23T04:27:12.080Z,99547.06
2022-12-23T04:30:16.784Z,99552.28
2022-12-23T04:33:22.876Z,99541.81
2022-12-23T04:36:27.575Z,99569.63
2022-12-23T04:39:32.074Z,99550.19
2022-12-23T04:42:37.024Z,99575.41
2022-12-23T04:45:41.631Z,99569.31
2022-12-23T04:48:46.287Z,99584.69
2022-12-23T04:51:50.880Z,99579.75
2022-12-23T04:54:55.448Z,99580.69
2022-12-23T04:57:59.777Z,99587.56
2022-12-23T05:01:10.237Z,99597.25
2022-12-23T05:04:15.927Z,99599.09
2022-12-23T05:07:20.366Z,99565.81
2022-12-23T05:10:24.899Z,99605.97
2022-12-23T05:13:29.497Z,99577.91
2022-12-23T05:16:34.851Z,99611.41
2022-12-23T05:19:39.617Z,99597.72
2022-12-23T05:22:44.133Z,99594.66
2022-12-23T05:25:54.246Z,99615.69
2022-12-23T05:28:58.578Z,99597.69
2022-12-23T05:32:02.845Z,99616.34
2022-12-23T05:35:08.504Z,99620.38
2022-12-23T05:38:13.413Z,99624.38
2022-12-23T05:41:18.526Z,99636.84
2022-12-23T05:44:23.191Z,99610.31
2022-12-23T05:47:27.716Z,99607.53
2022-12-23T05:50:32.155Z,99635.09
2022-12-23T05:53:39.215Z,99641.25
2022-12-23T05:56:43.590Z,99649.97
2022-12-23T05:59:48.255Z,99659.97
2022-12-23T06:02:54.217Z,99648.22
2022-12-23T06:05:59.030Z,99670.34
2022-12-23T06:09:03.756Z,99658.91
2022-12-23T06:12:09.091Z,99678.88
2022-12-23T06:15:13.907Z,99695.81
2022-12-23T06:18:18.769Z,99685.72
2022-12-23T06:21:23.099Z,99684.56
2022-12-23T06:24:27.492Z,99694.00
2022-12-23T06:27:32.264Z,99699.53
2022-12-23T06:30:36.657Z,99705.03
2022-12-23T06:33:41.080Z,99638.44
2022-12-23T06:36:47.496Z,99693.84
2022-12-23T06:39:51.803Z,99708.28
2022-12-23T06:42:56.143Z,99709.91
2022-12-23T06:46:00.827Z,99719.38
2022-12-23T06:49:12.598Z,99723.91
2022-12-23T06:52:17.909Z,99700.44
2022-12-23T06:55:22.425Z,99699.56
2022-12-23T06:58:26.847Z,99708.03
2022-12-23T07:01:31.569Z,99713.22
2022-12-23T07:04:36.155Z,99725.28
2022-12-23T07:07:40.367Z,99722.66
2022-12-23T07:10:44.583Z,99732.03
2022-12-23T07:13:49.150Z,99718.78
2022-12-23T07:16:53.680Z,99726.59
2022-12-23T07:19:58.395Z,99729.97
2022-12-23T07:23:02.865Z,99720.16
2022-12-23T07:26:07.750Z,99733.59
2022-12-23T07:29:12.136Z,99750.88
2022-12-23T07:32:16.610Z,99743.00
2022-12-23T07:35:21.106Z,99753.22
2022-12-23T07:38:25.682Z,99759.25
2022-12-23T07:41:30.296Z,99756.75
2022-12-23T07:44:41.307Z,99760.22
2022-12-23T07:47:46.048Z,99772.06
2022-12-23T07:50:50.781Z,99784.28
2022-12-23T07:53:55.555Z,99769.38
2022-12-23T07:57:00.254Z,99766.59
2022-12-23T08:00:06.951Z,99804.91
2022-12-23T08:03:19.287Z,99791.13
2022-12-23T08:06:23.909Z,99806.81
2022-12-23T08:09:28.432Z,99801.41
2022-12-23T08:12:32.852Z,99822.00
2022-12-23T08:15:37.388Z,99820.94
2022-12-23T08:18:43.196Z,99832.59
2022-12-23T08:21:47.509Z,99835.25
2022-12-23T08:24:53.379Z,99849.22
2022-12-23T08:27:58.064Z,99814.34
2022-12-23T08:31:13.284Z,99838.78
2022-12-23T08:34:18.300Z,99844.63
2022-12-23T08:37:23.009Z,99829.50
2022-12-23T08:40:27.688Z,99855.69
2022-12-23T08:43:35.792Z,99830.16
2022-12-23T08:46:41.554Z,99847.47
2022-12-23T08:49:46.036Z,99821.66
2022-12-23T08:52:50.632Z,99852.09
2022-12-23T08:55:55.117Z,99855.53
2022-12-23T08:58:59.474Z,99826.75
2022-12-23T09:02:04.671Z,99855.59
2022-12-23T09:05:10.820Z,99843.47
2022-12-23T09:08:15.910Z,99852.19
2022-12-23T09:11:25.433Z,99855.59
2022-12-23T09:14:31.251Z,99864.25
2022-12-23T09:17:35.849Z,99861.75
2022-12-23T09:20:40.725Z,99868.88
2022-12-23T09:23:45.479Z,99859.50
2022-12-23T09:26:49.984Z,99879.13
2022-12-23T09:29:54.458Z,99868.22
2022-12-23T09:32:58.987Z,99848.16
2022-12-23T09:36:04.549Z,99877.66
2022-12-23T09:39:09.117Z,99864.97
2022-12-23T09:42:41.181Z,99862.41
2022-12-23T09:46:08.401Z,99833.31
2022-12-23T09:49:19.865Z,99863.16
2022-12-23T09:52:47.262Z,99867.84
2022-12-23T09:56:17.900Z,99877.31
2022-12-23T09:59:36.191Z,99864.75
2022-12-23T10:02:43.994Z,99885.97
2022-12-23T10:05:57.212Z,99890.97
2022-12-23T10:09:16.359Z,99855.94
2022-12-23T10:12:40.571Z,99898.84
2022-12-23T10:15:49.676Z,99897.25
2022-12-23T10:19:22.002Z,99916.66
2022-12-23T10:22:44.017Z,99922.38
2022-12-23T10:25:52.758Z,99929.97
2022-12-23T10:29:12.827Z,99923.75
2022-12-23T10:32:31.479Z,99921.47
2022-12-23T10:35:46.493Z,99911.28
2022-12-23T10:39:13.464Z,99928.91
2022-12-23T10:42:21.132Z,99929.03
2022-12-23T10:45:46.143Z,99950.47
2022-12-23T10:49:10.243Z,99941.19
2022-12-23T10:52:21.525Z,99936.78
2022-12-23T10:55:34.525Z,99942.16
2022-12-23T10:58:44.600Z,99939.19
2022-12-23T11:01:56.585Z,99944.00
2022-12-23T11:05:01.182Z,99952.53
2022-12-23T11:08:07.101Z,99934.31
2022-12-23T11:11:11.793Z,99941.25
2022-12-23T11:14:33.423Z,99960.72
2022-12-23T11:17:38.040Z,99958.13
2022-12-23T11:20:44.827Z,99946.53
2022-12-23T11:23:49.877Z,99945.50
2022-12-23T11:27:06.173Z,99960.72
2022-12-23T11:30:19.941Z,99957.16
2022-12-23T11:33:34.323Z,99962.56
2022-12-23T11:36:38.811Z,99969.72
2022-12-23T11:39:47.963Z,99923.59
2022-12-23T11:43:02.822Z,99971.19
2022-12-23T11:46:25.983Z,99971.97
2022-12-23T11:49:32.603Z,99973.47
2022-12-23T11:52:37.284Z,99971.75
2022-12-23T11:55:49.674Z,99987.72
2022-12-23T11:59:09.626Z,99992.69
2022-12-23T12:02:22.697Z,99991.09
2022-12-23T12:05:31.582Z,99995.41
2022-12-23T12:08:39.284Z,99966.56
2022-12-23T12:11:51.179Z,99978.91
2022-12-23T12:14:58.483Z,99973.72
2022-12-23T12:18:10.140Z,99963.72
2022-12-23T12:21:21.906Z,99936.00
2022-12-23T12:24:40.089Z,99987.81
2022-12-23T12:27:59.527Z,99988.41
2022-12-23T12:31:14.368Z,99986.50
2022-12-23T12:34:39.381Z,99996.00
2022-12-23T12:37:51.162Z,100012.22
2022-12-23T12:41:04.309Z,99994.91
2022-12-23T12:44:17.758Z,100012.66
2022-12-23T12:47:53.454Z,99968.00
2022-12-23T12:51:17.784Z,100003.53
2022-12-23T12:54:37.392Z,100009.06
2022-12-23T12:57:42.529Z,100000.31
2022-12-23T13:01:06.101Z,100006.19
2022-12-23T13:04:46.169Z,100016.63
2022-12-23T13:08:26.913Z,100027.19
2022-12-23T13:12:16.481Z,100031.84
2022-12-23T13:15:31.742Z,100032.00
2022-12-23T13:18:38.701Z,100038.78
2022-12-23T13:22:05.179Z,100016.31
2022-12-23T13:25:41.136Z,100014.50
2022-12-23T13:28:57.950Z,100040.94
2022-12-23T13:32:32.719Z,100059.38
2022-12-23T13:35:59.719Z,100043.19
2022-12-23T13:39:19.480Z,100049.47
2022-12-23T13:42:35.121Z,100054.66
2022-12-23T13:45:44.012Z,99946.06
2022-12-23T13:48:54.479Z,100053.41
2022-12-23T13:52:18.764Z,100055.53
2022-12-23T13:55:30.216Z,100050.53
2022-12-23T13:58:35.658Z,100061.72
2022-12-23T14:01:47.980Z,100039.09
2022-12-23T14:04:59.753Z,100065.09
2022-12-23T14:08:34.815Z,100060.22
2022-12-23T14:11:39.842Z,100069.78
2022-12-23T14:15:00.524Z,100062.34
2022-12-23T14:18:34.966Z,100068.59
2022-12-23T14:22:34.836Z,100073.22
2022-12-23T14:26:02.071Z,100070.66
2022-12-23T14:29:19.937Z,100075.22
2022-12-23T14:32:31.029Z,100056.75
2022-12-23T14:35:42.152Z,100070.94
2022-12-23T14:39:13.044Z,100065.53
2022-12-23T14:42:42.584Z,100063.78
2022-12-23T14:45:47.266Z,100026.63
2022-12-23T14:49:09.635Z,100076.75
2022-12-23T14:52:44.664Z,100084.69
2022-12-23T14:55:51.501Z,100061.28
2022-12-23T14:59:17.222Z,100080.41
2022-12-23T15:02:36.707Z,100050.03
2022-12-23T15:05:42.167Z,100065.25
2022-12-23T15:08:48.950Z,100069.34
2022-12-23T15:11:57.168Z,100056.34
2022-12-23T15:15:26.148Z,100059.81
2022-12-23T15:18:30.910Z,100059.22
2022-12-23T15:21:37.061Z,100065.91
2022-12-23T15:24:43.518Z,100069.38
2022-12-23T15:27:48.289Z,100069.75
2022-12-23T15:30:57.928Z,100018.03
2022-12-23T15:34:16.804Z,100075.63
2022-12-23T15:37:33.214Z,100074.47
2022-12-23T15:40:39.596Z,100098.09
2022-12-23T15:43:45.816Z,100083.69
2022-12-23T15:46:51.397Z,100079.94
2022-12-23T15:50:02.664Z,100078.66
2022-12-23T15:53:09.841Z,100089.09
2022-12-23T15:56:30.596Z,100117.22
2022-12-23T15:59:39.515Z,100114.47
2022-12-23T16:03:02.920Z,100115.94
2022-12-23T16:06:17.462Z,100124.13
2022-12-23T16:09:22.469Z,100126.31
2022-12-23T16:12:28.932Z,100134.41
2022-12-23T16:15:34.512Z,100129.31
2022-12-23T16:18:47.220Z,100119.13
2022-12-23T16:21:52.424Z,100125.22
2022-12-23T16:25:12.679Z,100132.22
2022-12-23T16:28:24.862Z,100113.50
2022-12-23T16:31:29.504Z,100129.78
2022-12-23T16:34:34.131Z,100125.41
2022-12-23T16:37:38.609Z,100116.06
2022-12-23T16:40:44.798Z,100128.72
2022-12-23T16:43:52.494Z,100137.41
2022-12-23T16:46:57.507Z,100149.84
2022-12-23T16:50:02.078Z,100164.41
2022-12-23T16:53:06.697Z,100172.00
2022-12-23T16:56:20.037Z,100179.00
2022-12-23T16:59:25.752Z,100190.56
2022-12-23T17:02:30.978Z,100198.31
2022-12-23T17:05:36.002Z,100186.56
2022-12-23T17:09:00.777Z,100184.94
2022-12-23T17:12:06.016Z,100203.91
2022-12-23T17:15:44.967Z,100208.13
2022-12-23T17:18:51.263Z,100209.84
2022-12-23T17:22:01.219Z,100195.97
2022-12-23T17:25:06.217Z,100201.53
2022-12-23T17:28:12.109Z,100182.88
2022-12-23T17:31:26.343Z,100210.53
2022-12-23T17:34:31.487Z,100222.47
2022-12-23T17:37:36.641Z,100210.25
2022-12-23T17:40:41.285Z,100198.38
2022-12-23T17:43:46.309Z,100204.94
2022-12-23T17:46:50.739Z,100213.44
2022-12-23T17:49:55.291Z,100209.66
2022-12-23T17:52:59.927Z,100220.31
2022-12-23T17:56:04.548Z,100219.53
2022-12-23T17:59:09.522Z,100209.44
2022-12-23T18:02:36.273Z,100244.06
2022-12-23T18:05:41.732Z,100208.69
2022-12-23T18:08:47.205Z,100238.88
2022-12-23T18:11:51.869Z,100242.97
2022-12-23T18:14:58.089Z,100199.88
2022-12-23T18:18:02.936Z,100218.84
2022-12-23T18:21:07.693Z,100244.13
2022-12-23T18:24:12.606Z,100236.31
2022-12-23T18:27:19.820Z,100240.34
2022-12-23T18:30:24.577Z,100227.28
2022-12-23T18:33:31.128Z,100232.59
2022-12-23T18:36:36.096Z,100235.25
2022-12-23T18:39:40.769Z,100218.22
2022-12-23T18:42:47.139Z,100251.69
2022-12-23T18:45:54.356Z,100265.97
2022-12-23T18:48:59.404Z,100259.59
2022-12-23T18:52:08.243Z,100255.88
2022-12-23T18:55:13.689Z,100266.22
2022-12-23T18:58:21.528Z,100274.63
2022-12-23T19:01:26.051Z,100271.03
2022-12-23T19:04:30.848Z,100230.22
2022-12-23T19:07:35.962Z,100277.88
2022-12-23T19:10:40.932Z,100265.03
2022-12-23T19:13:46.690Z,100287.97
2022-12-23T19:16:52.385Z,100290.56
2022-12-23T19:19:57.131Z,100287.69
2022-12-23T19:23:01.665Z,100288.34
2022-12-23T19:26:07.158Z,100301.22
2022-12-23T19:29:11.864Z,100283.00
2022-12-23T19:32:16.714Z,100282.59
2022-12-23T19:35:21.942Z,100311.13
2022-12-23T19:38:27.522Z,100311.19
2022-12-23T19:41:32.279Z,100299.06
2022-12-23T19:44:36.887Z,100310.34
2022-12-23T19:47:41.441Z,100302.91
2022-12-23T19:50:45.774Z,100299.22
2022-12-23T19:53:52.637Z,100318.28
2022-12-23T19:56:57.174Z,100312.19
2022-12-23T20:00:03.532Z,100321.41
2022-12-23T20:03:16.594Z,100309.38
2022-12-23T20:06:25.629Z,100328.78
2022-12-23T20:09:30.139Z,100324.53
2022-12-23T20:12:34.733Z,100315.22
2022-12-23T20:15:39.248Z,100341.16
2022-12-23T20:19:02.537Z,100334.53
2022-12-23T20:22:25.347Z,100333.75
2022-12-23T20:25:30.429Z,100343.16
2022-12-23T20:28:35.444Z,100341.78
2022-12-23T20:31:40.673Z,100332.44
2022-12-23T20:34:45.236Z,100348.41
2022-12-23T20:37:49.803Z,100347.19
2022-12-23T20:40:54.333Z,100365.09
2022-12-23T20:47:24.176Z,100356.09
2022-12-23T20:50:28.557Z,100336.03
2022-12-23T20:53:33.465Z,100386.78
2022-12-23T20:56:37.933Z,100384.53
2022-12-23T20:59:42.589Z,100391.84
2022-12-23T21:02:47.326Z,100399.56
2022-12-23T21:05:51.899Z,100402.34
2022-12-23T21:08:58.972Z,100408.84
2022-12-23T21:12:03.839Z,100421.97
2022-12-23T21:15:09.775Z,100418.81
2022-12-23T21:18:14.217Z,100413.41
2022-12-23T21:21:18.614Z,100430.91
2022-12-23T21:24:23.172Z,100427.44
2022-12-23T21:27:27.879Z,100430.16
2022-12-23T21:30:32.265Z,100434.94
2022-12-23T21:33:39.302Z,100423.97
2022-12-23T21:36:44.369Z,100446.50
2022-12-23T21:39:49.042Z,100451.47
2022-12-23T21:42:53.558Z,100451.94
2022-12-23T21:46:06.721Z,100442.31
2022-12-23T21:49:12.048Z,100450.94
2022-12-23T21:52:16.593Z,100453.94
2022-12-23T21:55:21.177Z,100456.88
2022-12-23T21:58:26.597Z,100467.06
2022-12-23T22:01:31.673Z,100475.00
2022-12-23T22:04:36.191Z,100475.41
2022-12-23T22:07:40.798Z,100462.66
2022-12-23T22:10:46.419Z,100470.25
2022-12-23T22:13:51.171Z,100483.31
2022-12-23T22:16:55.722Z,100477.44
2022-12-23T22:20:00.211Z,100471.50
2022-12-23T22:23:05.098Z,100484.53
2022-12-23T22:26:15.506Z,100482.91
2022-12-23T22:29:23.124Z,100481.72
2022-12-23T22:32:27.953Z,100485.56
2022-12-23T22:35:32.379Z,100500.88
2022-12-23T22:38:36.989Z,100508.56
2022-12-23T22:41:41.429Z,100506.28
2022-12-23T22:44:45.873Z,100472.63
2022-12-23T22:47:50.657Z,100514.50
2022-12-23T22:51:03.693Z,100510.72
2022-12-23T22:54:08.561Z,100521.44
2022-12-23T22:57:12.901Z,100529.38
2022-12-23T23:00:17.923Z,100510.03
2022-12-23T23:03:22.747Z,100510.25
2022-12-23T23:06:35.729Z,100530.69
2022-12-23T23:09:40.263Z,100530.69
2022-12-23T23:12:45.179Z,100508.81
2022-12-23T23:15:50.117Z,100549.56
2022-12-23T23:18:55.291Z,100535.69
2022-12-23T23:21:59.505Z,100550.88
2022-12-23T23:25:04.107Z,100544.41
2022-12-23T23:28:08.625Z,100553.34
2022-12-23T23:34:38.618Z,100542.09
2022-12-23T23:37:43.417Z,100561.22
2022-12-23T23:40:54.493Z,100566.84
2022-12-23T23:43:58.851Z,100552.97
2022-12-23T23:47:03.719Z,100549.88
2022-12-23T23:50:09.275Z,100572.09
2022-12-23T23:53:14.634Z,100560.56
2022-12-23T23:56:24.793Z,100545.91
2022-12-23T23:59:30.254Z,100564.97
